Ds Blue Wave — A8YK2 — position and weather

sailwx.info

Track history (hours):
 
Tides and Currents Weather Stations Pressure Air Temp Water Temp Dewpoint Dewpoint Depression Visibility Wind Speed Wind Dir Waves Ship Positions

Ds Blue Wave

Last reported at 2015-Jul-04 01:28 UTC. Time now 2015-Jul-04 01:42 UTC.
Position N 31°22' E 121°35'.

Length 129 m; draft 5.8 m.

Type: Cargo ship. MMSI: 636092200.

Date/timePositionNaut miles runAvg speedWind from/ knotsBaromVisibWave heightAir tempDewpointWater temp
2015-Jul-04 01:28N 31°22' E 121°35'0 0.0
2015-Jul-04 00:22N 31°22' E 121°35'0 0.0
2015-Jul-03 23:28N 31°22' E 121°35'0 0.0
2015-Jul-03 22:31N 31°22' E 121°35'0 0.0
2015-Jul-03 21:28N 31°22' E 121°35'1 0.7
2015-Jul-03 20:33N 31°22' E 121°36'9 9.4
2015-Jul-03 19:34N 31°17' E 121°45'1313.3
2015-Jul-03 18:33N 31°07' E 121°56'40 1.7
2015-Jul-02 18:29N 30°59' E 122°42'0 0.1
2015-Jul-02 17:32N 30°59' E 122°42'0 0.1
2015-Jul-02 15:32N 30°59' E 122°41'40613.1
2015-Jul-01 08:33N 33°43' E 130°01'1212.0
2015-Jul-01 07:33N 33°41' E 130°15'8 7.6
2015-Jul-01 06:31N 33°39' E 130°25'0 0.0
2015-Jul-01 05:31N 33°39' E 130°25'0 0.0
2015-Jul-01 04:31N 33°39' E 130°25'0 0.0
2015-Jul-01 03:31N 33°39' E 130°25'0 0.0
2015-Jul-01 02:31N 33°39' E 130°25'0 0.0
2015-Jul-01 01:31N 33°39' E 130°25'0 0.0
2015-Jul-01 00:31N 33°39' E 130°25'0 0.0
2015-Jun-30 23:32N 33°39' E 130°25'7 5.2
2015-Jun-30 22:11N 33°39' E 130°16'0 0.6
2015-Jun-30 21:33N 33°39' E 130°16'0 0.0
2015-Jun-30 20:33N 33°39' E 130°16'0 0.0
2015-Jun-30 19:33N 33°39' E 130°16'0 0.0
2015-Jun-30 18:33N 33°39' E 130°16'0 0.0
2015-Jun-30 17:30N 33°39' E 130°16'0 0.0
2015-Jun-30 16:33N 33°39' E 130°16'0 0.1
2015-Jun-30 15:12N 33°39' E 130°16'0 0.0
2015-Jun-30 13:12N 33°39' E 130°16'1 0.4
2015-Jun-30 11:31N 33°40' E 130°16'14 0.7
2015-Jun-29 16:06N 33°45' E 130°00'44611.9
2015-Jun-28 02:30N 31°21' E 121°40'  
2015-Jun-24 05:33N 33°41' E 129°55'  
Track history (hours):
 
Tides and Currents Weather Stations Pressure Air Temp Water Temp Dewpoint Dewpoint Depression Visibility Wind Speed Wind Dir Waves Ship Positions

Ds Blue Wave

Last reported at 2015-Jul-04 01:28 UTC. Time now 2015-Jul-04 01:42 UTC.
Position N 31°22' E 121°35'.

Length 129 m; draft 5.8 m.

Type: Cargo ship. MMSI: 636092200.

Date/timePositionNaut miles runAvg speedWind from/ knotsBaromVisibWave heightAir tempDewpointWater temp
2015-Jul-04 01:28N 31°22' E 121°35'0 0.0
2015-Jul-04 00:22N 31°22' E 121°35'0 0.0
2015-Jul-03 23:28N 31°22' E 121°35'0 0.0
2015-Jul-03 22:31N 31°22' E 121°35'0 0.0
2015-Jul-03 21:28N 31°22' E 121°35'1 0.7
2015-Jul-03 20:33N 31°22' E 121°36'9 9.4
2015-Jul-03 19:34N 31°17' E 121°45'1313.3
2015-Jul-03 18:33N 31°07' E 121°56'40 1.7
2015-Jul-02 18:29N 30°59' E 122°42'0 0.1
2015-Jul-02 17:32N 30°59' E 122°42'0 0.1
2015-Jul-02 15:32N 30°59' E 122°41'40613.1
2015-Jul-01 08:33N 33°43' E 130°01'1212.0
2015-Jul-01 07:33N 33°41' E 130°15'8 7.6
2015-Jul-01 06:31N 33°39' E 130°25'0 0.0
2015-Jul-01 05:31N 33°39' E 130°25'0 0.0
2015-Jul-01 04:31N 33°39' E 130°25'0 0.0
2015-Jul-01 03:31N 33°39' E 130°25'0 0.0
2015-Jul-01 02:31N 33°39' E 130°25'0 0.0
2015-Jul-01 01:31N 33°39' E 130°25'0 0.0
2015-Jul-01 00:31N 33°39' E 130°25'0 0.0
2015-Jun-30 23:32N 33°39' E 130°25'7 5.2
2015-Jun-30 22:11N 33°39' E 130°16'0 0.6
2015-Jun-30 21:33N 33°39' E 130°16'0 0.0
2015-Jun-30 20:33N 33°39' E 130°16'0 0.0
2015-Jun-30 19:33N 33°39' E 130°16'0 0.0
2015-Jun-30 18:33N 33°39' E 130°16'0 0.0
2015-Jun-30 17:30N 33°39' E 130°16'0 0.0
2015-Jun-30 16:33N 33°39' E 130°16'0 0.1
2015-Jun-30 15:12N 33°39' E 130°16'0 0.0
2015-Jun-30 13:12N 33°39' E 130°16'1 0.4
2015-Jun-30 11:31N 33°40' E 130°16'14 0.7
2015-Jun-29 16:06N 33°45' E 130°00'44611.9
2015-Jun-28 02:30N 31°21' E 121°40'  
2015-Jun-24 05:33N 33°41' E 129°55'  

Dump ship's entire track history